Alderson, Oklahoma
Current Conditions -  °F | °C
As of 8:53 PM on Friday 19 Dec 2014 (Local Time) from KMLC Reporting Station
Haze Haze  
Wind Chill: 39°   Ceiling: 300
Heat Index: 42°   Visibility: 0.75mi
Dew Point: 41°   Wind: 5mph
Humidity: 96%   Direction: 360°N
Pressure: 30.22"   Gusts: NA
Location:  34.9°N, 95.69°W
Report Text: KMLC 200253Z AUTO 36004KT 3/4SM BR VV003 06/05 A3022 RMK AO2 SLP234 T00560050 53005
Loading
Personal Weather Stations






























Interactive Weather Map New forecast layout! Learn more

10-Day Weather Forecast

Advertisements
Track Severe Weather on mobile